sensor_id;sensor_type;location;lat;lon;timestamp;temperature;humidity
7518;DHT22;3800;48.922;9.444;2023-11-19T00:00:11;8.10;99.90
7518;DHT22;3800;48.922;9.444;2023-11-19T00:02:41;8.20;99.90
7518;DHT22;3800;48.922;9.444;2023-11-19T00:05:09;8.10;99.90
7518;DHT22;3800;48.922;9.444;2023-11-19T00:07:38;8.20;99.90
7518;DHT22;3800;48.922;9.444;2023-11-19T00:10:09;8.30;99.90
7518;DHT22;3800;48.922;9.444;2023-11-19T00:12:38;8.30;99.90
7518;DHT22;3800;48.922;9.444;2023-11-19T00:15:08;8.40;99.90
7518;DHT22;3800;48.922;9.444;2023-11-19T00:17:38;8.30;99.90
7518;DHT22;3800;48.922;9.444;2023-11-19T00:20:08;8.40;99.90
7518;DHT22;3800;48.922;9.444;2023-11-19T00:22:36;8.40;99.90
7518;DHT22;3800;48.922;9.444;2023-11-19T00:25:06;8.40;99.90
7518;DHT22;3800;48.922;9.444;2023-11-19T00:27:35;8.40;99.90
7518;DHT22;3800;48.922;9.444;2023-11-19T00:30:07;8.40;99.90
7518;DHT22;3800;48.922;9.444;2023-11-19T00:32:36;8.50;99.90
7518;DHT22;3800;48.922;9.444;2023-11-19T00:35:05;8.50;99.90
7518;DHT22;3800;48.922;9.444;2023-11-19T00:37:33;8.50;99.90
7518;DHT22;3800;48.922;9.444;2023-11-19T00:40:01;8.60;99.90
7518;DHT22;3800;48.922;9.444;2023-11-19T00:42:30;8.60;99.90
7518;DHT22;3800;48.922;9.444;2023-11-19T00:44:58;8.60;99.90
7518;DHT22;3800;48.922;9.444;2023-11-19T00:47:27;8.70;99.90
7518;DHT22;3800;48.922;9.444;2023-11-19T00:49:55;8.70;99.90
7518;DHT22;3800;48.922;9.444;2023-11-19T00:52:24;8.70;99.90
7518;DHT22;3800;48.922;9.444;2023-11-19T00:54:53;8.70;99.90
7518;DHT22;3800;48.922;9.444;2023-11-19T00:57:22;8.70;99.90
7518;DHT22;3800;48.922;9.444;2023-11-19T00:59:50;8.70;99.90
7518;DHT22;3800;48.922;9.444;2023-11-19T01:02:18;8.70;99.90
7518;DHT22;3800;48.922;9.444;2023-11-19T01:04:47;8.70;99.90
7518;DHT22;3800;48.922;9.444;2023-11-19T01:07:16;8.70;99.90
7518;DHT22;3800;48.922;9.444;2023-11-19T01:09:44;8.70;99.90
7518;DHT22;3800;48.922;9.444;2023-11-19T01:12:13;8.70;99.90
7518;DHT22;3800;48.922;9.444;2023-11-19T01:14:42;8.70;99.90
7518;DHT22;3800;48.922;9.444;2023-11-19T01:17:10;8.70;99.90
7518;DHT22;3800;48.922;9.444;2023-11-19T01:19:38;8.70;99.90
7518;DHT22;3800;48.922;9.444;2023-11-19T01:22:07;8.80;99.90
7518;DHT22;3800;48.922;9.444;2023-11-19T01:24:36;8.80;99.90
7518;DHT22;3800;48.922;9.444;2023-11-19T01:27:04;8.80;99.90
7518;DHT22;3800;48.922;9.444;2023-11-19T01:29:32;8.80;99.90
7518;DHT22;3800;48.922;9.444;2023-11-19T01:32:00;8.90;99.90
7518;DHT22;3800;48.922;9.444;2023-11-19T01:34:29;8.90;99.90
7518;DHT22;3800;48.922;9.444;2023-11-19T01:36:57;8.90;99.90
7518;DHT22;3800;48.922;9.444;2023-11-19T01:39:25;8.90;99.90
7518;DHT22;3800;48.922;9.444;2023-11-19T01:41:55;9.00;99.90
7518;DHT22;3800;48.922;9.444;2023-11-19T01:44:24;9.00;99.90
7518;DHT22;3800;48.922;9.444;2023-11-19T01:46:52;9.00;99.90
7518;DHT22;3800;48.922;9.444;2023-11-19T01:49:20;9.00;99.90
7518;DHT22;3800;48.922;9.444;2023-11-19T01:51:50;9.10;99.90
7518;DHT22;3800;48.922;9.444;2023-11-19T01:54:18;9.10;99.90
7518;DHT22;3800;48.922;9.444;2023-11-19T01:56:46;9.00;99.90
7518;DHT22;3800;48.922;9.444;2023-11-19T01:59:15;9.10;99.90
7518;DHT22;3800;48.922;9.444;2023-11-19T02:01:43;9.10;99.90
7518;DHT22;3800;48.922;9.444;2023-11-19T02:04:12;9.10;99.90
7518;DHT22;3800;48.922;9.444;2023-11-19T02:06:40;9.10;99.90
7518;DHT22;3800;48.922;9.444;2023-11-19T02:09:09;9.10;99.90
7518;DHT22;3800;48.922;9.444;2023-11-19T02:11:39;9.20;99.90
7518;DHT22;3800;48.922;9.444;2023-11-19T02:14:08;9.20;99.90
7518;DHT22;3800;48.922;9.444;2023-11-19T02:16:37;9.20;99.90
7518;DHT22;3800;48.922;9.444;2023-11-19T02:19:06;9.20;99.90
7518;DHT22;3800;48.922;9.444;2023-11-19T02:21:35;9.20;99.90
7518;DHT22;3800;48.922;9.444;2023-11-19T02:24:04;9.10;99.90
7518;DHT22;3800;48.922;9.444;2023-11-19T02:26:40;9.20;99.90
7518;DHT22;3800;48.922;9.444;2023-11-19T02:29:07;9.20;99.90
7518;DHT22;3800;48.922;9.444;2023-11-19T02:31:36;9.20;99.90
7518;DHT22;3800;48.922;9.444;2023-11-19T02:34:05;9.20;99.90
7518;DHT22;3800;48.922;9.444;2023-11-19T02:36:34;9.20;99.90
7518;DHT22;3800;48.922;9.444;2023-11-19T02:39:02;9.20;99.90
7518;DHT22;3800;48.922;9.444;2023-11-19T02:41:30;9.20;99.90
7518;DHT22;3800;48.922;9.444;2023-11-19T02:43:58;9.20;99.90
7518;DHT22;3800;48.922;9.444;2023-11-19T02:46:32;9.20;99.90
7518;DHT22;3800;48.922;9.444;2023-11-19T02:49:00;9.20;99.90
7518;DHT22;3800;48.922;9.444;2023-11-19T02:51:28;9.20;99.90
7518;DHT22;3800;48.922;9.444;2023-11-19T02:53:57;9.20;99.90
7518;DHT22;3800;48.922;9.444;2023-11-19T02:56:25;9.20;99.90
7518;DHT22;3800;48.922;9.444;2023-11-19T02:58:53;9.20;99.90
7518;DHT22;3800;48.922;9.444;2023-11-19T03:01:22;9.20;99.90
7518;DHT22;3800;48.922;9.444;2023-11-19T03:03:50;9.20;99.90
7518;DHT22;3800;48.922;9.444;2023-11-19T03:06:19;9.20;99.90
7518;DHT22;3800;48.922;9.444;2023-11-19T03:08:47;9.20;99.90
7518;DHT22;3800;48.922;9.444;2023-11-19T03:11:15;9.20;99.90
7518;DHT22;3800;48.922;9.444;2023-11-19T03:13:44;9.20;99.90
7518;DHT22;3800;48.922;9.444;2023-11-19T03:16:12;9.20;99.90
7518;DHT22;3800;48.922;9.444;2023-11-19T03:18:40;9.20;99.90
7518;DHT22;3800;48.922;9.444;2023-11-19T03:21:09;9.20;99.90
7518;DHT22;3800;48.922;9.444;2023-11-19T03:23:38;9.20;99.90
7518;DHT22;3800;48.922;9.444;2023-11-19T03:26:06;9.20;99.90
7518;DHT22;3800;48.922;9.444;2023-11-19T03:28:34;9.20;99.90
7518;DHT22;3800;48.922;9.444;2023-11-19T03:31:05;9.20;99.90
7518;DHT22;3800;48.922;9.444;2023-11-19T03:33:37;9.20;99.90
7518;DHT22;3800;48.922;9.444;2023-11-19T03:36:06;9.20;99.90
7518;DHT22;3800;48.922;9.444;2023-11-19T03:38:35;9.20;99.90
7518;DHT22;3800;48.922;9.444;2023-11-19T03:41:11;9.30;99.90
7518;DHT22;3800;48.922;9.444;2023-11-19T03:43:39;9.20;99.90
7518;DHT22;3800;48.922;9.444;2023-11-19T03:46:23;9.20;99.90
7518;DHT22;3800;48.922;9.444;2023-11-19T03:48:51;9.20;99.90
7518;DHT22;3800;48.922;9.444;2023-11-19T03:51:20;9.20;99.90
7518;DHT22;3800;48.922;9.444;2023-11-19T03:53:48;9.20;99.90
7518;DHT22;3800;48.922;9.444;2023-11-19T03:56:17;9.20;99.90
7518;DHT22;3800;48.922;9.444;2023-11-19T03:58:46;9.20;99.90
7518;DHT22;3800;48.922;9.444;2023-11-19T04:01:14;9.20;99.90
7518;DHT22;3800;48.922;9.444;2023-11-19T04:03:44;9.30;99.90
7518;DHT22;3800;48.922;9.444;2023-11-19T04:06:12;9.40;99.90
7518;DHT22;3800;48.922;9.444;2023-11-19T04:08:41;9.40;99.90
7518;DHT22;3800;48.922;9.444;2023-11-19T04:11:10;9.40;99.90
7518;DHT22;3800;48.922;9.444;2023-11-19T04:13:39;9.50;99.90
7518;DHT22;3800;48.922;9.444;2023-11-19T04:16:08;9.50;99.90
7518;DHT22;3800;48.922;9.444;2023-11-19T04:18:36;9.60;99.90
7518;DHT22;3800;48.922;9.444;2023-11-19T04:21:06;9.70;99.90
7518;DHT22;3800;48.922;9.444;2023-11-19T04:23:34;9.70;99.90
7518;DHT22;3800;48.922;9.444;2023-11-19T04:26:03;9.70;99.90
7518;DHT22;3800;48.922;9.444;2023-11-19T04:28:32;9.80;99.90
7518;DHT22;3800;48.922;9.444;2023-11-19T04:31:00;9.80;99.90
7518;DHT22;3800;48.922;9.444;2023-11-19T04:33:28;9.90;99.90
7518;DHT22;3800;48.922;9.444;2023-11-19T04:35:57;9.90;99.90
7518;DHT22;3800;48.922;9.444;2023-11-19T04:38:25;9.90;99.90
7518;DHT22;3800;48.922;9.444;2023-11-19T04:40:53;9.90;99.90
7518;DHT22;3800;48.922;9.444;2023-11-19T04:43:22;9.90;99.90
7518;DHT22;3800;48.922;9.444;2023-11-19T04:45:52;10.00;99.90
7518;DHT22;3800;48.922;9.444;2023-11-19T04:48:20;10.00;99.90
7518;DHT22;3800;48.922;9.444;2023-11-19T04:50:50;10.00;99.90
7518;DHT22;3800;48.922;9.444;2023-11-19T04:53:19;10.00;99.90
7518;DHT22;3800;48.922;9.444;2023-11-19T04:55:47;10.10;99.90
7518;DHT22;3800;48.922;9.444;2023-11-19T04:58:16;10.10;99.90
7518;DHT22;3800;48.922;9.444;2023-11-19T05:00:44;10.10;99.90
7518;DHT22;3800;48.922;9.444;2023-11-19T05:03:13;10.10;99.90
7518;DHT22;3800;48.922;9.444;2023-11-19T05:05:41;10.10;99.90
7518;DHT22;3800;48.922;9.444;2023-11-19T05:08:10;10.10;99.90
7518;DHT22;3800;48.922;9.444;2023-11-19T05:10:40;10.20;99.90
7518;DHT22;3800;48.922;9.444;2023-11-19T05:13:08;10.20;99.90
7518;DHT22;3800;48.922;9.444;2023-11-19T05:15:37;10.20;99.90
7518;DHT22;3800;48.922;9.444;2023-11-19T05:18:05;10.20;99.90
7518;DHT22;3800;48.922;9.444;2023-11-19T05:20:34;10.20;99.90
7518;DHT22;3800;48.922;9.444;2023-11-19T05:23:02;10.30;99.90
7518;DHT22;3800;48.922;9.444;2023-11-19T05:25:30;10.30;99.90
7518;DHT22;3800;48.922;9.444;2023-11-19T05:27:58;10.30;99.90
7518;DHT22;3800;48.922;9.444;2023-11-19T05:30:27;10.30;99.90
7518;DHT22;3800;48.922;9.444;2023-11-19T05:32:55;10.30;99.90
7518;DHT22;3800;48.922;9.444;2023-11-19T05:35:24;10.30;99.90
7518;DHT22;3800;48.922;9.444;2023-11-19T05:37:52;10.30;99.90
7518;DHT22;3800;48.922;9.444;2023-11-19T05:40:22;10.30;99.90
7518;DHT22;3800;48.922;9.444;2023-11-19T05:42:51;10.40;99.90
7518;DHT22;3800;48.922;9.444;2023-11-19T05:45:20;10.30;99.90
7518;DHT22;3800;48.922;9.444;2023-11-19T05:47:49;10.40;99.90
7518;DHT22;3800;48.922;9.444;2023-11-19T05:50:18;10.40;99.90
7518;DHT22;3800;48.922;9.444;2023-11-19T05:52:47;10.40;99.90
7518;DHT22;3800;48.922;9.444;2023-11-19T05:55:15;10.40;99.90
7518;DHT22;3800;48.922;9.444;2023-11-19T05:57:43;10.40;99.90
7518;DHT22;3800;48.922;9.444;2023-11-19T06:00:12;10.40;99.90
7518;DHT22;3800;48.922;9.444;2023-11-19T06:02:40;10.50;99.90
7518;DHT22;3800;48.922;9.444;2023-11-19T06:05:09;10.50;99.90
7518;DHT22;3800;48.922;9.444;2023-11-19T06:07:37;10.50;99.90
7518;DHT22;3800;48.922;9.444;2023-11-19T06:10:06;10.50;99.90
7518;DHT22;3800;48.922;9.444;2023-11-19T06:12:35;10.50;99.90
7518;DHT22;3800;48.922;9.444;2023-11-19T06:15:05;10.50;99.90
7518;DHT22;3800;48.922;9.444;2023-11-19T06:17:34;10.50;99.90
7518;DHT22;3800;48.922;9.444;2023-11-19T06:20:03;10.60;99.90
7518;DHT22;3800;48.922;9.444;2023-11-19T06:22:32;10.60;99.90
7518;DHT22;3800;48.922;9.444;2023-11-19T06:25:02;10.60;99.90
7518;DHT22;3800;48.922;9.444;2023-11-19T06:27:32;10.70;99.90
7518;DHT22;3800;48.922;9.444;2023-11-19T06:30:01;10.70;99.90
7518;DHT22;3800;48.922;9.444;2023-11-19T06:32:29;10.70;99.90
7518;DHT22;3800;48.922;9.444;2023-11-19T06:34:57;10.70;99.90
7518;DHT22;3800;48.922;9.444;2023-11-19T06:37:27;10.80;99.90
7518;DHT22;3800;48.922;9.444;2023-11-19T06:39:56;10.80;99.90
7518;DHT22;3800;48.922;9.444;2023-11-19T06:42:24;10.80;99.90
7518;DHT22;3800;48.922;9.444;2023-11-19T06:44:53;10.80;99.90
7518;DHT22;3800;48.922;9.444;2023-11-19T06:47:22;10.80;99.90
7518;DHT22;3800;48.922;9.444;2023-11-19T06:49:50;10.80;99.90
7518;DHT22;3800;48.922;9.444;2023-11-19T06:52:19;10.80;99.90
7518;DHT22;3800;48.922;9.444;2023-11-19T06:54:48;10.80;99.90
7518;DHT22;3800;48.922;9.444;2023-11-19T06:57:17;10.80;99.90
7518;DHT22;3800;48.922;9.444;2023-11-19T06:59:45;10.80;99.90
7518;DHT22;3800;48.922;9.444;2023-11-19T07:02:14;10.80;99.90
7518;DHT22;3800;48.922;9.444;2023-11-19T07:04:42;10.80;99.90
7518;DHT22;3800;48.922;9.444;2023-11-19T07:07:11;10.80;99.90
7518;DHT22;3800;48.922;9.444;2023-11-19T07:09:39;10.90;99.90
7518;DHT22;3800;48.922;9.444;2023-11-19T07:12:07;10.90;99.90
7518;DHT22;3800;48.922;9.444;2023-11-19T07:14:36;10.90;99.90
7518;DHT22;3800;48.922;9.444;2023-11-19T07:17:04;10.90;99.90
7518;DHT22;3800;48.922;9.444;2023-11-19T07:19:33;10.90;99.90
7518;DHT22;3800;48.922;9.444;2023-11-19T07:22:01;11.00;99.90
7518;DHT22;3800;48.922;9.444;2023-11-19T07:24:30;11.00;99.90
7518;DHT22;3800;48.922;9.444;2023-11-19T07:26:59;11.00;99.90
7518;DHT22;3800;48.922;9.444;2023-11-19T07:29:27;11.00;99.90
7518;DHT22;3800;48.922;9.444;2023-11-19T07:31:55;11.00;99.90
7518;DHT22;3800;48.922;9.444;2023-11-19T07:34:24;11.00;99.90
7518;DHT22;3800;48.922;9.444;2023-11-19T07:36:52;11.00;99.90
7518;DHT22;3800;48.922;9.444;2023-11-19T07:39:20;11.10;99.90
7518;DHT22;3800;48.922;9.444;2023-11-19T07:41:48;11.10;99.90
7518;DHT22;3800;48.922;9.444;2023-11-19T07:44:17;11.10;99.90
7518;DHT22;3800;48.922;9.444;2023-11-19T07:46:46;11.10;99.90
7518;DHT22;3800;48.922;9.444;2023-11-19T07:49:15;11.20;99.90
7518;DHT22;3800;48.922;9.444;2023-11-19T07:51:43;11.10;99.90
7518;DHT22;3800;48.922;9.444;2023-11-19T07:54:12;11.20;99.90
7518;DHT22;3800;48.922;9.444;2023-11-19T07:56:42;11.20;99.90
7518;DHT22;3800;48.922;9.444;2023-11-19T07:59:11;11.20;99.90
7518;DHT22;3800;48.922;9.444;2023-11-19T08:01:39;11.20;99.90
7518;DHT22;3800;48.922;9.444;2023-11-19T08:04:07;11.20;99.90
7518;DHT22;3800;48.922;9.444;2023-11-19T08:06:36;11.20;99.90
7518;DHT22;3800;48.922;9.444;2023-11-19T08:09:04;11.10;99.90
7518;DHT22;3800;48.922;9.444;2023-11-19T08:11:34;11.10;99.90
7518;DHT22;3800;48.922;9.444;2023-11-19T08:14:03;11.10;99.90
7518;DHT22;3800;48.922;9.444;2023-11-19T08:16:32;11.10;99.90
7518;DHT22;3800;48.922;9.444;2023-11-19T08:19:01;11.10;99.90
7518;DHT22;3800;48.922;9.444;2023-11-19T08:21:29;11.20;99.90
7518;DHT22;3800;48.922;9.444;2023-11-19T08:23:58;11.30;99.90
7518;DHT22;3800;48.922;9.444;2023-11-19T08:26:26;11.30;99.90
7518;DHT22;3800;48.922;9.444;2023-11-19T08:28:55;11.40;99.90
7518;DHT22;3800;48.922;9.444;2023-11-19T08:31:24;11.40;99.90
7518;DHT22;3800;48.922;9.444;2023-11-19T08:33:52;11.50;99.90
7518;DHT22;3800;48.922;9.444;2023-11-19T08:36:20;11.50;99.90
7518;DHT22;3800;48.922;9.444;2023-11-19T08:38:49;11.50;99.90
7518;DHT22;3800;48.922;9.444;2023-11-19T08:41:20;11.50;99.90
7518;DHT22;3800;48.922;9.444;2023-11-19T08:43:48;11.60;99.90
7518;DHT22;3800;48.922;9.444;2023-11-19T08:46:17;11.60;99.90
7518;DHT22;3800;48.922;9.444;2023-11-19T08:48:45;11.60;99.90
7518;DHT22;3800;48.922;9.444;2023-11-19T08:51:14;11.60;99.90
7518;DHT22;3800;48.922;9.444;2023-11-19T08:53:43;11.70;99.90
7518;DHT22;3800;48.922;9.444;2023-11-19T08:56:11;11.60;99.90
7518;DHT22;3800;48.922;9.444;2023-11-19T08:58:40;11.70;99.90
7518;DHT22;3800;48.922;9.444;2023-11-19T09:01:08;11.70;99.90
7518;DHT22;3800;48.922;9.444;2023-11-19T09:03:36;11.70;99.90
7518;DHT22;3800;48.922;9.444;2023-11-19T09:06:05;11.70;99.90
7518;DHT22;3800;48.922;9.444;2023-11-19T09:08:34;11.70;99.90
7518;DHT22;3800;48.922;9.444;2023-11-19T09:11:06;11.70;99.90
7518;DHT22;3800;48.922;9.444;2023-11-19T09:13:31;11.70;99.90
7518;DHT22;3800;48.922;9.444;2023-11-19T09:16:01;11.70;99.90
7518;DHT22;3800;48.922;9.444;2023-11-19T09:18:30;11.70;99.90
7518;DHT22;3800;48.922;9.444;2023-11-19T09:20:58;11.70;99.90
7518;DHT22;3800;48.922;9.444;2023-11-19T09:23:27;11.70;99.90
7518;DHT22;3800;48.922;9.444;2023-11-19T09:25:57;11.80;99.90
7518;DHT22;3800;48.922;9.444;2023-11-19T09:28:26;11.80;99.90
7518;DHT22;3800;48.922;9.444;2023-11-19T09:30:55;11.80;99.90
7518;DHT22;3800;48.922;9.444;2023-11-19T09:33:24;11.80;99.90
7518;DHT22;3800;48.922;9.444;2023-11-19T09:35:52;11.80;99.90
7518;DHT22;3800;48.922;9.444;2023-11-19T09:38:21;11.80;99.90
7518;DHT22;3800;48.922;9.444;2023-11-19T09:40:50;11.90;99.90
7518;DHT22;3800;48.922;9.444;2023-11-19T09:43:19;11.90;99.90
7518;DHT22;3800;48.922;9.444;2023-11-19T09:45:49;11.90;99.90
7518;DHT22;3800;48.922;9.444;2023-11-19T09:48:18;11.90;99.90
7518;DHT22;3800;48.922;9.444;2023-11-19T09:50:47;11.90;99.90
7518;DHT22;3800;48.922;9.444;2023-11-19T09:53:15;12.00;99.90
7518;DHT22;3800;48.922;9.444;2023-11-19T09:55:46;12.00;99.90
7518;DHT22;3800;48.922;9.444;2023-11-19T09:58:14;12.00;99.90
7518;DHT22;3800;48.922;9.444;2023-11-19T10:00:43;12.00;99.90
7518;DHT22;3800;48.922;9.444;2023-11-19T10:03:11;12.00;99.90
7518;DHT22;3800;48.922;9.444;2023-11-19T10:05:39;12.00;99.90
7518;DHT22;3800;48.922;9.444;2023-11-19T10:08:08;12.00;99.90
7518;DHT22;3800;48.922;9.444;2023-11-19T10:10:37;12.00;99.90
7518;DHT22;3800;48.922;9.444;2023-11-19T10:13:06;12.10;99.90
7518;DHT22;3800;48.922;9.444;2023-11-19T10:15:36;12.10;99.90
7518;DHT22;3800;48.922;9.444;2023-11-19T10:18:05;12.20;99.90
7518;DHT22;3800;48.922;9.444;2023-11-19T10:20:36;12.20;99.90
7518;DHT22;3800;48.922;9.444;2023-11-19T10:23:04;12.40;99.90
7518;DHT22;3800;48.922;9.444;2023-11-19T10:25:37;12.40;99.90
7518;DHT22;3800;48.922;9.444;2023-11-19T10:28:06;12.60;99.90
7518;DHT22;3800;48.922;9.444;2023-11-19T10:30:35;12.50;99.90
7518;DHT22;3800;48.922;9.444;2023-11-19T10:33:05;12.60;99.90
7518;DHT22;3800;48.922;9.444;2023-11-19T10:35:34;12.60;99.90
7518;DHT22;3800;48.922;9.444;2023-11-19T10:38:13;12.60;99.90
7518;DHT22;3800;48.922;9.444;2023-11-19T10:40:42;12.60;99.90
7518;DHT22;3800;48.922;9.444;2023-11-19T10:43:10;12.70;99.90
7518;DHT22;3800;48.922;9.444;2023-11-19T10:45:38;12.70;99.90
7518;DHT22;3800;48.922;9.444;2023-11-19T10:48:07;12.70;99.90
7518;DHT22;3800;48.922;9.444;2023-11-19T10:50:36;12.70;99.90
7518;DHT22;3800;48.922;9.444;2023-11-19T10:53:05;12.70;99.90
7518;DHT22;3800;48.922;9.444;2023-11-19T10:55:33;12.70;99.90
7518;DHT22;3800;48.922;9.444;2023-11-19T10:58:11;12.70;99.90
7518;DHT22;3800;48.922;9.444;2023-11-19T11:00:45;12.80;99.90
7518;DHT22;3800;48.922;9.444;2023-11-19T11:03:17;12.80;99.90
7518;DHT22;3800;48.922;9.444;2023-11-19T11:05:47;12.80;99.90
7518;DHT22;3800;48.922;9.444;2023-11-19T11:08:16;12.90;99.90
7518;DHT22;3800;48.922;9.444;2023-11-19T11:10:53;13.00;99.90
7518;DHT22;3800;48.922;9.444;2023-11-19T11:13:23;13.00;99.90
7518;DHT22;3800;48.922;9.444;2023-11-19T11:15:51;13.10;99.90
7518;DHT22;3800;48.922;9.444;2023-11-19T11:18:21;13.20;99.90
7518;DHT22;3800;48.922;9.444;2023-11-19T11:20:49;13.20;99.90
7518;DHT22;3800;48.922;9.444;2023-11-19T11:27:22;13.30;99.90
7518;DHT22;3800;48.922;9.444;2023-11-19T11:29:35;13.40;99.90
7518;DHT22;3800;48.922;9.444;2023-11-19T11:32:09;13.50;99.90
7518;DHT22;3800;48.922;9.444;2023-11-19T11:34:50;13.50;99.90
7518;DHT22;3800;48.922;9.444;2023-11-19T11:37:18;13.50;99.90
7518;DHT22;3800;48.922;9.444;2023-11-19T11:39:47;13.50;99.90
7518;DHT22;3800;48.922;9.444;2023-11-19T11:42:32;13.60;99.90
7518;DHT22;3800;48.922;9.444;2023-11-19T11:45:02;13.50;99.90
7518;DHT22;3800;48.922;9.444;2023-11-19T11:50:28;13.60;99.90
7518;DHT22;3800;48.922;9.444;2023-11-19T11:53:13;13.60;99.90
7518;DHT22;3800;48.922;9.444;2023-11-19T11:55:56;13.60;99.90
7518;DHT22;3800;48.922;9.444;2023-11-19T11:58:26;13.60;99.90
7518;DHT22;3800;48.922;9.444;2023-11-19T12:00:54;13.70;99.90
7518;DHT22;3800;48.922;9.444;2023-11-19T12:03:22;13.70;99.90
7518;DHT22;3800;48.922;9.444;2023-11-19T12:05:51;13.60;99.90
7518;DHT22;3800;48.922;9.444;2023-11-19T12:08:24;13.50;99.90
7518;DHT22;3800;48.922;9.444;2023-11-19T12:10:51;13.50;99.90
7518;DHT22;3800;48.922;9.444;2023-11-19T12:13:19;13.40;99.90
7518;DHT22;3800;48.922;9.444;2023-11-19T12:18:38;13.40;99.90
7518;DHT22;3800;48.922;9.444;2023-11-19T12:21:06;13.50;99.90
7518;DHT22;3800;48.922;9.444;2023-11-19T12:23:34;13.50;99.90
7518;DHT22;3800;48.922;9.444;2023-11-19T12:26:04;13.60;99.90
7518;DHT22;3800;48.922;9.444;2023-11-19T12:28:32;13.60;99.90
7518;DHT22;3800;48.922;9.444;2023-11-19T12:31:07;13.70;99.90
7518;DHT22;3800;48.922;9.444;2023-11-19T12:33:38;13.80;99.90
7518;DHT22;3800;48.922;9.444;2023-11-19T12:36:10;13.80;99.90
7518;DHT22;3800;48.922;9.444;2023-11-19T12:38:38;13.70;99.90
7518;DHT22;3800;48.922;9.444;2023-11-19T12:41:07;13.70;99.90
7518;DHT22;3800;48.922;9.444;2023-11-19T12:43:34;13.60;99.90
7518;DHT22;3800;48.922;9.444;2023-11-19T12:46:03;13.70;99.90
7518;DHT22;3800;48.922;9.444;2023-11-19T12:48:31;13.90;99.90
7518;DHT22;3800;48.922;9.444;2023-11-19T12:51:00;13.90;99.90
7518;DHT22;3800;48.922;9.444;2023-11-19T12:53:29;14.00;99.90
7518;DHT22;3800;48.922;9.444;2023-11-19T12:55:59;14.10;99.90
7518;DHT22;3800;48.922;9.444;2023-11-19T12:58:29;14.10;99.90
7518;DHT22;3800;48.922;9.444;2023-11-19T13:01:03;14.10;99.90
7518;DHT22;3800;48.922;9.444;2023-11-19T13:03:32;14.10;99.90
7518;DHT22;3800;48.922;9.444;2023-11-19T13:06:02;14.10;99.90
7518;DHT22;3800;48.922;9.444;2023-11-19T13:08:35;14.00;99.90
7518;DHT22;3800;48.922;9.444;2023-11-19T13:11:06;14.00;99.90
7518;DHT22;3800;48.922;9.444;2023-11-19T13:16:21;13.90;99.90
7518;DHT22;3800;48.922;9.444;2023-11-19T13:18:50;13.90;99.90
7518;DHT22;3800;48.922;9.444;2023-11-19T13:21:18;13.80;99.90
7518;DHT22;3800;48.922;9.444;2023-11-19T13:23:46;13.80;99.90
7518;DHT22;3800;48.922;9.444;2023-11-19T13:26:15;13.70;99.90
7518;DHT22;3800;48.922;9.444;2023-11-19T13:28:43;13.60;99.90
7518;DHT22;3800;48.922;9.444;2023-11-19T13:31:11;13.60;99.90
7518;DHT22;3800;48.922;9.444;2023-11-19T13:33:41;13.60;99.90
7518;DHT22;3800;48.922;9.444;2023-11-19T13:36:09;13.60;99.90
7518;DHT22;3800;48.922;9.444;2023-11-19T13:38:38;13.50;99.90
7518;DHT22;3800;48.922;9.444;2023-11-19T13:41:06;13.50;99.90
7518;DHT22;3800;48.922;9.444;2023-11-19T13:43:37;13.50;99.90
7518;DHT22;3800;48.922;9.444;2023-11-19T13:46:05;13.50;99.90
7518;DHT22;3800;48.922;9.444;2023-11-19T13:48:34;13.60;99.90
7518;DHT22;3800;48.922;9.444;2023-11-19T13:51:02;13.60;99.90
7518;DHT22;3800;48.922;9.444;2023-11-19T13:53:31;13.60;99.90
7518;DHT22;3800;48.922;9.444;2023-11-19T13:55:59;13.70;99.90
7518;DHT22;3800;48.922;9.444;2023-11-19T13:58:28;13.70;99.90
7518;DHT22;3800;48.922;9.444;2023-11-19T14:00:56;13.70;99.90
7518;DHT22;3800;48.922;9.444;2023-11-19T14:03:24;13.70;99.90
7518;DHT22;3800;48.922;9.444;2023-11-19T14:05:53;13.80;99.90
7518;DHT22;3800;48.922;9.444;2023-11-19T14:08:22;13.90;99.90
7518;DHT22;3800;48.922;9.444;2023-11-19T14:10:51;13.90;99.90
7518;DHT22;3800;48.922;9.444;2023-11-19T14:13:19;14.00;99.90
7518;DHT22;3800;48.922;9.444;2023-11-19T14:15:48;14.00;99.90
7518;DHT22;3800;48.922;9.444;2023-11-19T14:18:16;14.10;99.90
7518;DHT22;3800;48.922;9.444;2023-11-19T14:20:44;14.20;99.90
7518;DHT22;3800;48.922;9.444;2023-11-19T14:23:13;14.10;99.90
7518;DHT22;3800;48.922;9.444;2023-11-19T14:25:41;14.10;99.90
7518;DHT22;3800;48.922;9.444;2023-11-19T14:28:09;14.10;99.90
7518;DHT22;3800;48.922;9.444;2023-11-19T14:30:38;14.00;99.90
7518;DHT22;3800;48.922;9.444;2023-11-19T14:33:07;14.00;99.90
7518;DHT22;3800;48.922;9.444;2023-11-19T14:35:36;14.10;99.90
7518;DHT22;3800;48.922;9.444;2023-11-19T14:38:06;14.10;99.90
7518;DHT22;3800;48.922;9.444;2023-11-19T14:40:34;14.10;99.90
7518;DHT22;3800;48.922;9.444;2023-11-19T14:43:02;14.00;99.90
7518;DHT22;3800;48.922;9.444;2023-11-19T14:45:30;14.00;99.90
7518;DHT22;3800;48.922;9.444;2023-11-19T14:47:59;13.90;99.90
7518;DHT22;3800;48.922;9.444;2023-11-19T14:50:28;13.90;99.90
7518;DHT22;3800;48.922;9.444;2023-11-19T14:52:57;13.90;99.90
7518;DHT22;3800;48.922;9.444;2023-11-19T14:55:26;13.80;99.90
7518;DHT22;3800;48.922;9.444;2023-11-19T14:57:55;13.70;99.90
7518;DHT22;3800;48.922;9.444;2023-11-19T15:00:24;13.70;99.90
7518;DHT22;3800;48.922;9.444;2023-11-19T15:02:52;13.70;99.90
7518;DHT22;3800;48.922;9.444;2023-11-19T15:05:21;13.60;99.90
7518;DHT22;3800;48.922;9.444;2023-11-19T15:07:49;13.50;99.90
7518;DHT22;3800;48.922;9.444;2023-11-19T15:10:18;13.50;99.90
7518;DHT22;3800;48.922;9.444;2023-11-19T15:12:46;13.50;99.90
7518;DHT22;3800;48.922;9.444;2023-11-19T15:15:14;13.40;99.90
7518;DHT22;3800;48.922;9.444;2023-11-19T15:17:42;13.40;99.90
7518;DHT22;3800;48.922;9.444;2023-11-19T15:20:11;13.30;99.90
7518;DHT22;3800;48.922;9.444;2023-11-19T15:22:39;13.20;99.90
7518;DHT22;3800;48.922;9.444;2023-11-19T15:25:08;13.20;99.90
7518;DHT22;3800;48.922;9.444;2023-11-19T15:27:36;13.20;99.90
7518;DHT22;3800;48.922;9.444;2023-11-19T15:30:05;13.10;99.90
7518;DHT22;3800;48.922;9.444;2023-11-19T15:32:34;13.10;99.90
7518;DHT22;3800;48.922;9.444;2023-11-19T15:35:02;13.00;99.90
7518;DHT22;3800;48.922;9.444;2023-11-19T15:37:32;12.80;99.90
7518;DHT22;3800;48.922;9.444;2023-11-19T15:40:00;12.80;99.90
7518;DHT22;3800;48.922;9.444;2023-11-19T15:42:28;12.80;99.90
7518;DHT22;3800;48.922;9.444;2023-11-19T15:44:58;12.60;99.90
7518;DHT22;3800;48.922;9.444;2023-11-19T15:47:26;12.60;99.90
7518;DHT22;3800;48.922;9.444;2023-11-19T15:49:55;12.60;99.90
7518;DHT22;3800;48.922;9.444;2023-11-19T15:52:23;12.50;99.90
7518;DHT22;3800;48.922;9.444;2023-11-19T15:54:52;12.40;99.90
7518;DHT22;3800;48.922;9.444;2023-11-19T15:57:20;12.40;99.90
7518;DHT22;3800;48.922;9.444;2023-11-19T15:59:48;12.30;99.90
7518;DHT22;3800;48.922;9.444;2023-11-19T16:02:17;12.20;99.90
7518;DHT22;3800;48.922;9.444;2023-11-19T16:04:47;12.10;99.90
7518;DHT22;3800;48.922;9.444;2023-11-19T16:07:15;12.10;99.90
7518;DHT22;3800;48.922;9.444;2023-11-19T16:09:44;12.10;99.90
7518;DHT22;3800;48.922;9.444;2023-11-19T16:12:14;12.00;99.90
7518;DHT22;3800;48.922;9.444;2023-11-19T16:14:42;12.00;99.90
7518;DHT22;3800;48.922;9.444;2023-11-19T16:17:11;11.90;99.90
7518;DHT22;3800;48.922;9.444;2023-11-19T16:19:39;11.90;99.90
7518;DHT22;3800;48.922;9.444;2023-11-19T16:22:08;11.80;99.90
7518;DHT22;3800;48.922;9.444;2023-11-19T16:24:39;11.80;99.90
7518;DHT22;3800;48.922;9.444;2023-11-19T16:27:07;11.70;99.90
7518;DHT22;3800;48.922;9.444;2023-11-19T16:29:35;11.60;99.90